createdAt,value
2018-07-31T00:00:33.593Z,66.27
2018-07-31T00:01:33.538Z,67.17
2018-07-31T00:02:34.467Z,66.75
2018-07-31T00:03:33.589Z,66.66
2018-07-31T00:04:33.477Z,67.04
2018-07-31T00:05:33.528Z,66.27
2018-07-31T00:06:33.481Z,66.17
2018-07-31T00:07:33.410Z,67.52
2018-07-31T00:08:33.969Z,68.20
2018-07-31T00:09:33.420Z,67.04
2018-07-31T00:10:34.038Z,66.85
2018-07-31T00:11:33.373Z,67.04
2018-07-31T00:12:33.320Z,67.91
2018-07-31T00:13:33.975Z,67.72
2018-07-31T00:14:33.284Z,66.85
2018-07-31T00:15:33.969Z,66.94
2018-07-31T00:16:33.274Z,67.43
2018-07-31T00:17:33.205Z,67.91
2018-07-31T00:18:33.185Z,67.91
2018-07-31T00:19:33.162Z,67.59
2018-07-31T00:20:33.973Z,67.97
2018-07-31T00:21:33.174Z,67.78
2018-07-31T00:22:33.101Z,67.97
2018-07-31T00:23:33.531Z,68.65
2018-07-31T00:24:33.060Z,68.75
2018-07-31T00:25:33.045Z,68.36
2018-07-31T00:26:33.973Z,68.46
2018-07-31T00:27:33.146Z,68.94
2018-07-31T00:28:32.983Z,69.52
2018-07-31T00:29:33.480Z,69.52
2018-07-31T00:30:32.937Z,70.00
2018-07-31T00:31:32.916Z,70.00
2018-07-31T00:32:32.947Z,69.62
2018-07-31T00:33:33.477Z,69.81
2018-07-31T00:34:32.856Z,69.90
2018-07-31T00:35:32.838Z,69.49
2018-07-31T00:36:33.035Z,69.71
2018-07-31T00:37:32.845Z,69.97
2018-07-31T00:38:32.774Z,69.68
2018-07-31T00:39:32.800Z,70.45
2018-07-31T00:40:33.479Z,70.84
2018-07-31T00:41:32.712Z,70.36
2018-07-31T00:42:33.488Z,70.94
2018-07-31T00:43:32.679Z,70.45
2018-07-31T00:44:32.709Z,70.54
2018-07-31T00:45:33.479Z,71.12
2018-07-31T00:46:32.613Z,71.22
2018-07-31T00:47:33.499Z,71.22
2018-07-31T00:48:32.571Z,71.03
2018-07-31T00:49:32.597Z,71.70
2018-07-31T00:50:33.488Z,71.70
2018-07-31T00:51:32.510Z,72.28
2018-07-31T00:52:32.485Z,72.77
2018-07-31T00:53:32.536Z,72.58
2018-07-31T00:54:32.445Z,71.80
2018-07-31T00:55:32.425Z,72.09
2018-07-31T00:56:32.987Z,72.09
2018-07-31T00:57:32.382Z,72.58
2018-07-31T00:58:32.407Z,71.90
2018-07-31T00:59:32.544Z,71.90
2018-07-31T01:00:32.317Z,72.34
2018-07-31T01:01:32.300Z,72.73
2018-07-31T01:02:32.982Z,72.73
2018-07-31T01:03:32.305Z,73.69
2018-07-31T01:04:32.237Z,74.27
2018-07-31T01:05:32.986Z,74.57
2018-07-31T01:06:32.197Z,73.69
2018-07-31T01:07:32.182Z,73.21
2018-07-31T01:08:32.187Z,73.79
2018-07-31T01:09:32.987Z,73.41
2018-07-31T01:10:32.111Z,72.54
2018-07-31T01:11:32.987Z,73.60
2018-07-31T01:12:32.095Z,73.69
2018-07-31T01:13:32.984Z,73.79
2018-07-31T01:14:32.025Z,73.41
2018-07-31T01:15:32.989Z,73.31
2018-07-31T01:16:31.986Z,73.31
2018-07-31T01:17:32.017Z,73.21
2018-07-31T01:18:32.044Z,73.60
2018-07-31T01:19:31.927Z,73.60
2018-07-31T01:20:32.049Z,73.89
2018-07-31T01:21:31.878Z,73.60
2018-07-31T01:22:32.494Z,75.24
2018-07-31T01:23:31.835Z,74.57
2018-07-31T01:24:31.819Z,74.76
2018-07-31T01:25:32.043Z,73.69
2018-07-31T01:26:31.790Z,74.47
2018-07-31T01:27:31.759Z,74.08
2018-07-31T01:28:32.493Z,74.76
2018-07-31T01:29:31.709Z,74.57
2018-07-31T01:30:32.024Z,74.57
2018-07-31T01:31:31.666Z,74.76
2018-07-31T01:32:32.051Z,74.37
2018-07-31T01:33:31.628Z,73.31
2018-07-31T01:34:31.602Z,73.60
2018-07-31T01:35:32.057Z,73.89
2018-07-31T01:36:31.569Z,74.47
2018-07-31T01:37:31.542Z,74.27
2018-07-31T01:38:31.523Z,75.05
2018-07-31T01:39:32.493Z,74.47
2018-07-31T01:40:31.526Z,74.66
2018-07-31T01:41:31.465Z,75.05
2018-07-31T01:42:31.435Z,74.66
2018-07-31T01:43:31.992Z,74.95
2018-07-31T01:44:31.433Z,74.76
2018-07-31T01:45:31.549Z,74.91
2018-07-31T01:46:31.355Z,75.72
2018-07-31T01:47:31.995Z,75.30
2018-07-31T01:48:31.369Z,76.20
2018-07-31T01:49:31.288Z,75.78
2018-07-31T01:50:31.270Z,75.59
2018-07-31T01:51:31.244Z,75.43
2018-07-31T01:52:32.000Z,75.10
2018-07-31T01:53:31.252Z,75.68
2018-07-31T01:54:31.995Z,75.53
2018-07-31T01:55:31.205Z,76.78
2018-07-31T01:56:31.141Z,75.53
2018-07-31T01:57:32.006Z,75.92
2018-07-31T01:58:31.101Z,75.78
2018-07-31T01:59:31.127Z,76.84
2018-07-31T02:00:31.057Z,76.36
2018-07-31T02:01:32.006Z,76.45
2018-07-31T02:02:31.012Z,76.75
2018-07-31T02:03:30.993Z,76.93
2018-07-31T02:04:31.052Z,76.65
2018-07-31T02:05:30.952Z,76.45
2018-07-31T02:06:31.499Z,76.55
2018-07-31T02:07:30.911Z,76.84
2018-07-31T02:08:30.887Z,76.84
2018-07-31T02:09:30.907Z,77.42
2018-07-31T02:10:30.892Z,77.13
2018-07-31T02:11:30.824Z,77.51
2018-07-31T02:12:30.802Z,77.09
2018-07-31T02:13:30.782Z,77.71
2018-07-31T02:14:30.795Z,78.58
2018-07-31T02:15:30.793Z,78.00
2018-07-31T02:16:30.714Z,77.61
2018-07-31T02:17:30.698Z,77.81
2018-07-31T02:18:30.677Z,78.06
2018-07-31T02:19:30.651Z,78.63
2018-07-31T02:20:30.683Z,77.96
2018-07-31T02:21:30.608Z,77.86
2018-07-31T02:22:30.589Z,78.44
2018-07-31T02:23:30.566Z,77.96
2018-07-31T02:24:30.548Z,78.06
2018-07-31T02:25:30.567Z,78.73
2018-07-31T02:26:30.503Z,78.34
2018-07-31T02:27:30.484Z,78.73
2018-07-31T02:28:30.574Z,78.34
2018-07-31T02:29:30.441Z,78.34
2018-07-31T02:30:30.418Z,78.63
2018-07-31T02:31:30.449Z,78.54
2018-07-31T02:32:30.375Z,78.25
2018-07-31T02:33:30.350Z,78.34
2018-07-31T02:34:30.330Z,78.73
2018-07-31T02:35:30.307Z,79.11
2018-07-31T02:36:30.344Z,79.60
2018-07-31T02:37:30.267Z,79.50
2018-07-31T02:38:30.246Z,80.27
2018-07-31T02:39:30.227Z,79.50
2018-07-31T02:40:30.207Z,79.98
2018-07-31T02:41:30.223Z,80.08
2018-07-31T02:42:30.216Z,80.18
2018-07-31T02:43:30.144Z,80.46
2018-07-31T02:44:30.113Z,80.37
2018-07-31T02:45:30.092Z,80.56
2018-07-31T02:46:30.077Z,79.98
2018-07-31T02:47:30.103Z,80.18
2018-07-31T02:48:30.030Z,80.56
2018-07-31T02:49:30.012Z,79.98
2018-07-31T02:50:29.984Z,80.18
2018-07-31T02:51:29.969Z,80.94
2018-07-31T02:52:30.005Z,81.14
2018-07-31T02:53:29.920Z,80.91
2018-07-31T02:54:29.907Z,81.04
2018-07-31T02:55:29.878Z,80.85
2018-07-31T02:56:29.902Z,80.66
2018-07-31T02:57:29.887Z,80.52
2018-07-31T02:58:29.813Z,80.71
2018-07-31T02:59:29.797Z,80.91
2018-07-31T03:00:29.777Z,81.01
2018-07-31T03:01:29.752Z,80.62
2018-07-31T03:02:29.772Z,81.20
2018-07-31T03:03:29.706Z,81.01
2018-07-31T03:04:29.731Z,81.39
2018-07-31T03:05:29.664Z,81.81
2018-07-31T03:06:29.645Z,81.39
2018-07-31T03:07:29.624Z,81.29
2018-07-31T03:08:29.598Z,81.29
2018-07-31T03:09:29.613Z,81.10
2018-07-31T03:10:29.553Z,81.29
2018-07-31T03:11:29.535Z,81.33
2018-07-31T03:12:29.515Z,81.43
2018-07-31T03:13:29.491Z,80.43
2018-07-31T03:14:29.514Z,80.66
2018-07-31T03:15:29.469Z,81.39
2018-07-31T03:16:30.028Z,81.14
2018-07-31T03:17:29.410Z,81.01
2018-07-31T03:18:29.381Z,81.58
2018-07-31T03:19:29.409Z,81.01
2018-07-31T03:20:29.338Z,81.39
2018-07-31T03:21:29.364Z,81.20
2018-07-31T03:22:29.292Z,81.77
2018-07-31T03:23:29.270Z,82.45
2018-07-31T03:24:30.024Z,81.68
2018-07-31T03:25:29.277Z,81.43
2018-07-31T03:26:29.228Z,81.39
2018-07-31T03:27:29.186Z,81.39
2018-07-31T03:28:30.025Z,81.29
2018-07-31T03:29:29.140Z,81.24
2018-07-31T03:30:29.167Z,81.20
2018-07-31T03:31:29.142Z,82.26
2018-07-31T03:32:29.074Z,81.81
2018-07-31T03:33:29.100Z,82.10
2018-07-31T03:34:29.037Z,82.10
2018-07-31T03:35:29.009Z,81.87
2018-07-31T03:36:28.993Z,82.01
2018-07-31T03:37:29.012Z,81.77
2018-07-31T03:38:28.946Z,81.77
2018-07-31T03:39:28.922Z,82.39
2018-07-31T03:40:29.528Z,82.10
2018-07-31T03:41:28.936Z,82.10
2018-07-31T03:42:28.861Z,82.74
2018-07-31T03:43:28.842Z,82.54
2018-07-31T03:44:28.818Z,82.64
2018-07-31T03:45:28.795Z,82.68
2018-07-31T03:46:28.856Z,82.83
2018-07-31T03:47:28.762Z,82.64
2018-07-31T03:48:28.728Z,82.26
2018-07-31T03:49:28.707Z,82.93
2018-07-31T03:50:28.691Z,83.22
2018-07-31T03:51:29.082Z,83.22
2018-07-31T03:52:28.642Z,83.31
2018-07-31T03:53:28.624Z,82.54
2018-07-31T03:54:28.608Z,82.45
2018-07-31T03:55:28.642Z,82.93
2018-07-31T03:56:28.556Z,82.54
2018-07-31T03:57:28.535Z,82.74
2018-07-31T03:58:28.558Z,82.74
2018-07-31T03:59:28.495Z,83.22
2018-07-31T04:00:28.466Z,83.31
2018-07-31T04:01:28.454Z,83.51
2018-07-31T04:02:28.425Z,82.74
2018-07-31T04:03:28.457Z,82.29
2018-07-31T04:04:28.378Z,82.74
2018-07-31T04:05:28.416Z,83.07
2018-07-31T04:06:28.337Z,82.59
2018-07-31T04:07:28.315Z,82.68
2018-07-31T04:08:28.342Z,82.68
2018-07-31T04:09:28.281Z,83.07
2018-07-31T04:10:28.297Z,82.10
2018-07-31T04:11:28.275Z,82.10
2018-07-31T04:12:28.213Z,82.10
2018-07-31T04:13:28.190Z,82.20
2018-07-31T04:14:28.167Z,82.29
2018-07-31T04:15:28.183Z,82.68
2018-07-31T04:16:28.120Z,82.20
2018-07-31T04:17:28.245Z,82.20
2018-07-31T04:18:28.077Z,82.10
2018-07-31T04:19:28.060Z,81.81
2018-07-31T04:20:28.037Z,81.43
2018-07-31T04:21:28.020Z,81.91
2018-07-31T04:22:28.039Z,81.72
2018-07-31T04:23:27.975Z,81.43
2018-07-31T04:24:27.951Z,80.56
2018-07-31T04:25:27.932Z,80.76
2018-07-31T04:26:27.906Z,80.99
2018-07-31T04:27:28.104Z,81.18
2018-07-31T04:28:27.870Z,81.66
2018-07-31T04:29:27.850Z,81.37
2018-07-31T04:30:27.823Z,81.27
2018-07-31T04:31:27.828Z,81.18
2018-07-31T04:32:27.838Z,80.79
2018-07-31T04:33:27.809Z,80.89
2018-07-31T04:34:27.741Z,80.89
2018-07-31T04:35:27.760Z,80.79
2018-07-31T04:36:27.699Z,80.99
2018-07-31T04:37:27.675Z,80.31
2018-07-31T04:38:27.706Z,80.41
2018-07-31T04:39:27.632Z,80.69
2018-07-31T04:40:27.653Z,80.79
2018-07-31T04:41:27.595Z,80.41
2018-07-31T04:42:27.591Z,80.06
2018-07-31T04:43:27.546Z,80.54
2018-07-31T04:44:27.530Z,80.54
2018-07-31T04:45:27.559Z,80.45
2018-07-31T04:46:27.486Z,80.45
2018-07-31T04:47:27.466Z,80.64
2018-07-31T04:48:27.443Z,80.45
2018-07-31T04:49:27.423Z,80.06
2018-07-31T04:50:27.463Z,80.26
2018-07-31T04:51:27.378Z,80.45
2018-07-31T04:52:27.360Z,80.06
2018-07-31T04:53:27.350Z,80.16
2018-07-31T04:54:27.319Z,79.68
2018-07-31T04:55:27.345Z,79.58
2018-07-31T04:56:27.321Z,79.58
2018-07-31T04:57:27.261Z,79.49
2018-07-31T04:58:27.233Z,79.29
2018-07-31T04:59:27.212Z,79.29
2018-07-31T05:00:27.193Z,79.33
2018-07-31T05:01:27.219Z,79.52
2018-07-31T05:02:27.151Z,78.75
2018-07-31T05:03:27.130Z,79.04
2018-07-31T05:04:27.165Z,79.04
2018-07-31T05:05:27.092Z,79.04
2018-07-31T05:06:27.122Z,78.36
2018-07-31T05:07:27.046Z,78.66
2018-07-31T05:08:27.025Z,78.66
2018-07-31T05:09:27.005Z,78.46
2018-07-31T05:10:26.982Z,78.46
2018-07-31T05:11:27.008Z,78.08
2018-07-31T05:12:26.991Z,78.02
2018-07-31T05:13:27.551Z,78.69
2018-07-31T05:14:27.555Z,77.44
2018-07-31T05:15:26.884Z,77.73
2018-07-31T05:16:26.864Z,78.02
2018-07-31T05:17:26.899Z,77.34
2018-07-31T05:18:26.858Z,77.25
2018-07-31T05:19:26.802Z,77.34
2018-07-31T05:20:26.782Z,76.95
2018-07-31T05:21:26.757Z,76.95
2018-07-31T05:22:26.783Z,77.25
2018-07-31T05:23:26.719Z,77.09
2018-07-31T05:24:26.701Z,76.61
2018-07-31T05:25:26.681Z,76.51
2018-07-31T05:26:26.662Z,76.70
2018-07-31T05:27:26.688Z,75.93
2018-07-31T05:28:26.659Z,75.93
2018-07-31T05:29:26.599Z,75.74
2018-07-31T05:30:26.576Z,74.96
2018-07-31T05:31:26.555Z,75.64
2018-07-31T05:32:26.604Z,75.26
2018-07-31T05:33:26.563Z,75.06
2018-07-31T05:34:26.498Z,74.81
2018-07-31T05:35:26.482Z,74.32
2018-07-31T05:36:26.462Z,74.62
2018-07-31T05:37:26.437Z,73.65
2018-07-31T05:38:26.468Z,73.65
2018-07-31T05:39:26.415Z,73.74
2018-07-31T05:40:26.383Z,73.46
2018-07-31T05:41:26.361Z,73.46
2018-07-31T05:42:26.350Z,73.46
2018-07-31T05:43:26.372Z,73.26
2018-07-31T05:44:26.308Z,73.39
2018-07-31T05:45:26.290Z,72.39
2018-07-31T05:46:26.268Z,72.33
2018-07-31T05:47:26.253Z,72.42
2018-07-31T05:48:26.274Z,72.42
2018-07-31T05:49:26.217Z,72.62
2018-07-31T05:50:26.187Z,72.33
2018-07-31T05:51:26.214Z,72.72
2018-07-31T05:52:26.147Z,72.24
2018-07-31T05:53:26.128Z,72.72
2018-07-31T05:54:26.110Z,71.75
2018-07-31T05:55:26.093Z,72.24
2018-07-31T05:56:26.115Z,72.08
2018-07-31T05:57:26.104Z,71.88
2018-07-31T05:58:26.031Z,71.88
2018-07-31T05:59:26.024Z,71.98
2018-07-31T06:00:26.030Z,71.59
2018-07-31T06:01:26.020Z,72.27
2018-07-31T06:02:25.948Z,72.17
2018-07-31T06:03:25.958Z,72.36
2018-07-31T06:04:25.916Z,71.30
2018-07-31T06:05:25.899Z,70.62
2018-07-31T06:06:25.932Z,70.53
2018-07-31T06:07:25.901Z,71.01
2018-07-31T06:08:25.838Z,70.95
2018-07-31T06:09:26.588Z,70.86
2018-07-31T06:10:25.852Z,70.86
2018-07-31T06:11:25.848Z,70.76
2018-07-31T06:12:25.765Z,70.76
2018-07-31T06:13:25.755Z,70.76
2018-07-31T06:14:25.726Z,70.08
2018-07-31T06:15:25.745Z,70.27
2018-07-31T06:16:25.680Z,70.56
2018-07-31T06:17:25.704Z,69.98
2018-07-31T06:18:25.642Z,69.69
2018-07-31T06:19:25.622Z,69.53
2018-07-31T06:20:25.609Z,69.73
2018-07-31T06:21:25.592Z,69.53
2018-07-31T06:22:25.623Z,68.95
2018-07-31T06:23:25.552Z,69.43
2018-07-31T06:24:25.574Z,69.34
2018-07-31T06:25:25.511Z,69.24
2018-07-31T06:26:25.492Z,68.76
2018-07-31T06:27:25.509Z,68.37
2018-07-31T06:28:25.495Z,68.18
2018-07-31T06:29:25.430Z,68.66
2018-07-31T06:30:25.414Z,68.40
2018-07-31T06:31:25.407Z,68.66
2018-07-31T06:32:25.370Z,68.27
2018-07-31T06:33:25.398Z,68.56
2018-07-31T06:34:25.368Z,68.79
2018-07-31T06:35:25.316Z,68.70
2018-07-31T06:36:25.981Z,68.40
2018-07-31T06:37:25.282Z,68.70
2018-07-31T06:38:25.306Z,67.92
2018-07-31T06:39:25.239Z,68.60
2018-07-31T06:40:25.276Z,68.70
2018-07-31T06:41:25.200Z,68.12
2018-07-31T06:42:25.234Z,68.12
2018-07-31T06:43:25.205Z,67.63
2018-07-31T06:44:25.160Z,67.63
2018-07-31T06:45:25.127Z,67.82
2018-07-31T06:46:25.112Z,67.47
2018-07-31T06:47:25.138Z,67.76
2018-07-31T06:48:25.071Z,68.15
2018-07-31T06:49:25.066Z,68.44
2018-07-31T06:50:25.040Z,68.15
2018-07-31T06:51:25.059Z,67.76
2018-07-31T06:52:24.995Z,67.27
2018-07-31T06:53:25.050Z,67.66
2018-07-31T06:54:24.967Z,67.76
2018-07-31T06:55:24.982Z,67.40
2018-07-31T06:56:25.135Z,67.99
2018-07-31T06:57:24.901Z,67.40
2018-07-31T06:58:24.885Z,67.21
2018-07-31T06:59:24.867Z,67.11
2018-07-31T07:00:24.847Z,67.02
2018-07-31T07:01:24.871Z,67.02
2018-07-31T07:02:24.813Z,66.92
2018-07-31T07:03:25.490Z,66.95
2018-07-31T07:04:24.772Z,67.21
2018-07-31T07:05:24.797Z,67.14
2018-07-31T07:06:24.735Z,66.17
2018-07-31T07:07:24.764Z,66.56
2018-07-31T07:08:24.697Z,66.27
2018-07-31T07:09:24.690Z,66.27
2018-07-31T07:10:24.676Z,66.17
2018-07-31T07:11:24.662Z,65.89
2018-07-31T07:12:24.673Z,65.59
2018-07-31T07:13:24.703Z,65.50
2018-07-31T07:14:24.595Z,65.30
2018-07-31T07:15:24.618Z,65.14
2018-07-31T07:16:24.552Z,65.14
2018-07-31T07:17:24.588Z,64.56
2018-07-31T07:18:24.525Z,64.65
2018-07-31T07:19:24.513Z,64.56
2018-07-31T07:20:24.523Z,64.46
2018-07-31T07:21:24.470Z,64.40
2018-07-31T07:22:24.452Z,64.59
2018-07-31T07:23:25.092Z,63.71
2018-07-31T07:24:24.465Z,63.62
2018-07-31T07:25:24.390Z,63.71
2018-07-31T07:26:24.377Z,62.97
2018-07-31T07:27:24.415Z,62.94
2018-07-31T07:28:24.380Z,63.55
2018-07-31T07:29:24.321Z,63.36
2018-07-31T07:30:24.338Z,62.77
2018-07-31T07:31:24.283Z,62.58
2018-07-31T07:32:24.308Z,62.48
2018-07-31T07:33:24.304Z,62.19
2018-07-31T07:34:24.227Z,62.00
2018-07-31T07:35:25.094Z,62.10
2018-07-31T07:36:24.192Z,62.38
2018-07-31T07:37:24.237Z,62.77
2018-07-31T07:38:24.175Z,61.41
2018-07-31T07:39:24.138Z,61.51
2018-07-31T07:40:24.123Z,61.74
2018-07-31T07:41:24.106Z,61.74
2018-07-31T07:42:24.146Z,61.25
2018-07-31T07:43:24.117Z,61.25
2018-07-31T07:44:24.050Z,60.77
2018-07-31T07:45:24.036Z,60.47
2018-07-31T07:46:24.014Z,60.38
2018-07-31T07:47:24.049Z,60.41
2018-07-31T07:48:24.046Z,60.31
2018-07-31T07:49:23.988Z,60.31
2018-07-31T07:50:23.964Z,60.50
2018-07-31T07:51:23.928Z,60.11
2018-07-31T07:52:23.913Z,59.17
2018-07-31T07:53:23.963Z,59.17
2018-07-31T07:54:23.945Z,58.69
2018-07-31T07:55:23.856Z,58.49
2018-07-31T07:56:23.841Z,58.87
2018-07-31T07:57:23.824Z,57.90
2018-07-31T07:58:23.857Z,58.59
2018-07-31T07:59:23.843Z,58.10
2018-07-31T08:00:23.774Z,58.49
2018-07-31T08:01:23.755Z,58.39
2018-07-31T08:02:23.736Z,58.29
2018-07-31T08:03:23.767Z,57.51
2018-07-31T08:04:23.705Z,56.74
2018-07-31T08:05:23.688Z,58.03
2018-07-31T08:06:23.671Z,57.45
2018-07-31T08:07:23.692Z,57.84
2018-07-31T08:08:23.644Z,56.27
2018-07-31T08:09:23.667Z,56.18
2018-07-31T08:10:23.599Z,56.86
2018-07-31T08:11:23.588Z,56.79
2018-07-31T08:12:23.570Z,56.11
2018-07-31T08:13:23.655Z,56.11
2018-07-31T08:14:23.572Z,56.01
2018-07-31T08:15:23.566Z,56.11
2018-07-31T08:16:23.502Z,55.52
2018-07-31T08:17:23.483Z,55.82
2018-07-31T08:18:23.468Z,55.72
2018-07-31T08:19:23.462Z,55.52
2018-07-31T08:20:23.493Z,55.75
2018-07-31T08:21:23.421Z,55.65
2018-07-31T08:22:23.399Z,55.07
2018-07-31T08:23:23.431Z,54.19
2018-07-31T08:24:23.369Z,54.09
2018-07-31T08:25:23.411Z,54.19
2018-07-31T08:26:23.329Z,53.99
2018-07-31T08:27:23.318Z,54.09
2018-07-31T08:28:23.298Z,54.09
2018-07-31T08:29:23.282Z,53.24
2018-07-31T08:30:23.318Z,53.21
2018-07-31T08:31:23.261Z,53.14
2018-07-31T08:32:23.230Z,53.31
2018-07-31T08:33:23.247Z,53.34
2018-07-31T08:34:23.212Z,53.44
2018-07-31T08:35:23.248Z,53.24
2018-07-31T08:36:23.169Z,53.92
2018-07-31T08:37:23.151Z,54.21
2018-07-31T08:38:23.131Z,54.02
2018-07-31T08:39:23.159Z,54.21
2018-07-31T08:40:23.145Z,54.02
2018-07-31T08:41:23.143Z,54.41
2018-07-31T08:42:23.081Z,54.14
2018-07-31T08:43:23.054Z,54.24
2018-07-31T08:44:23.034Z,54.24
2018-07-31T08:45:23.063Z,53.75
2018-07-31T08:46:23.050Z,54.14
2018-07-31T08:47:22.985Z,54.24
2018-07-31T08:48:22.973Z,53.75
2018-07-31T08:49:22.952Z,54.14
2018-07-31T08:50:22.940Z,53.07
2018-07-31T08:51:22.962Z,52.78
2018-07-31T08:52:22.904Z,52.97
2018-07-31T08:53:22.891Z,52.87
2018-07-31T08:54:22.872Z,52.90
2018-07-31T08:55:22.875Z,52.48
2018-07-31T08:56:22.882Z,52.90
2018-07-31T08:57:22.825Z,52.87
2018-07-31T08:58:22.807Z,52.70
2018-07-31T08:59:22.792Z,52.80
2018-07-31T09:00:22.818Z,53.09
2018-07-31T09:01:22.759Z,52.41
2018-07-31T09:02:22.755Z,52.70
2018-07-31T09:03:22.727Z,53.29
2018-07-31T09:04:22.724Z,51.82
2018-07-31T09:05:22.738Z,52.22
2018-07-31T09:06:22.736Z,52.73
2018-07-31T09:07:22.666Z,52.83
2018-07-31T09:08:22.710Z,52.54
2018-07-31T09:09:22.641Z,52.54
2018-07-31T09:10:22.619Z,51.56
2018-07-31T09:11:22.651Z,52.15
2018-07-31T09:12:22.589Z,51.56
2018-07-31T09:13:22.571Z,52.73
2018-07-31T09:14:22.554Z,51.56
2018-07-31T09:15:22.537Z,52.05
2018-07-31T09:16:22.561Z,51.66
2018-07-31T09:17:22.539Z,50.68
2018-07-31T09:18:22.495Z,50.68
2018-07-31T09:19:22.518Z,50.88
2018-07-31T09:20:22.507Z,50.59
2018-07-31T09:21:22.443Z,50.88
2018-07-31T09:22:22.495Z,51.39
2018-07-31T09:23:22.415Z,51.59
2018-07-31T09:24:22.438Z,51.49
2018-07-31T09:25:22.444Z,51.49
2018-07-31T09:26:22.367Z,51.78
2018-07-31T09:27:22.356Z,50.51
2018-07-31T09:28:22.336Z,50.71
2018-07-31T09:29:22.369Z,50.12
2018-07-31T09:30:22.326Z,49.85
2018-07-31T09:31:22.285Z,49.36
2018-07-31T09:32:22.280Z,49.26
2018-07-31T09:33:22.258Z,49.95
2018-07-31T09:34:22.294Z,49.46
2018-07-31T09:35:22.222Z,49.36
2018-07-31T09:36:22.299Z,49.36
2018-07-31T09:37:22.231Z,49.65
2018-07-31T09:38:22.195Z,49.46
2018-07-31T09:39:22.171Z,48.68
2018-07-31T09:40:22.203Z,49.36
2018-07-31T09:41:22.183Z,49.07
2018-07-31T09:42:22.116Z,48.19
2018-07-31T09:43:22.102Z,47.80
2018-07-31T09:44:22.133Z,47.89
2018-07-31T09:45:22.073Z,47.80
2018-07-31T09:46:22.054Z,46.82
2018-07-31T09:47:22.039Z,46.43
2018-07-31T09:48:22.030Z,45.36
2018-07-31T09:49:22.073Z,45.84
2018-07-31T09:50:21.995Z,46.33
2018-07-31T09:51:21.978Z,47.04
2018-07-31T09:52:21.962Z,47.14
2018-07-31T09:53:21.947Z,47.04
2018-07-31T09:54:21.978Z,46.06
2018-07-31T09:55:21.931Z,46.16
2018-07-31T09:56:21.904Z,46.45
2018-07-31T09:57:21.891Z,46.75
2018-07-31T09:58:21.872Z,47.43
2018-07-31T09:59:21.907Z,47.43
2018-07-31T10:00:21.843Z,46.94
2018-07-31T10:01:21.825Z,46.45
2018-07-31T10:02:21.832Z,46.65
2018-07-31T10:03:21.795Z,46.55
2018-07-31T10:04:21.838Z,46.75
2018-07-31T10:05:21.820Z,46.97
2018-07-31T10:06:21.756Z,46.77
2018-07-31T10:07:21.774Z,45.40
2018-07-31T10:08:21.719Z,45.98
2018-07-31T10:09:21.746Z,45.98
2018-07-31T10:10:21.735Z,45.98
2018-07-31T10:11:21.675Z,45.98
2018-07-31T10:12:21.659Z,45.69
2018-07-31T10:13:21.643Z,44.42
2018-07-31T10:14:21.628Z,44.81
2018-07-31T10:15:21.659Z,45.30
2018-07-31T10:16:21.659Z,45.01
2018-07-31T10:17:21.584Z,45.01
2018-07-31T10:18:21.746Z,45.10
2018-07-31T10:19:21.552Z,45.30
2018-07-31T10:20:21.541Z,44.42
2018-07-31T10:21:21.578Z,44.71
2018-07-31T10:22:21.508Z,44.03
2018-07-31T10:23:21.496Z,43.73
2018-07-31T10:24:21.476Z,43.15
2018-07-31T10:25:21.462Z,42.58
2018-07-31T10:26:21.511Z,42.36
2018-07-31T10:27:21.441Z,41.50
2018-07-31T10:28:21.419Z,41.78
2018-07-31T10:29:21.406Z,41.80
2018-07-31T10:30:21.385Z,41.80
2018-07-31T10:31:21.431Z,41.50
2018-07-31T10:32:21.362Z,41.70
2018-07-31T10:33:21.350Z,41.70
2018-07-31T10:34:21.329Z,41.60
2018-07-31T10:35:21.314Z,41.60
2018-07-31T10:36:21.353Z,41.89
2018-07-31T10:37:21.288Z,42.41
2018-07-31T10:38:21.310Z,42.50
2018-07-31T10:39:21.252Z,41.92
2018-07-31T10:40:21.243Z,40.64
2018-07-31T10:41:21.268Z,40.84
2018-07-31T10:42:21.248Z,40.45
2018-07-31T10:43:21.194Z,40.45
2018-07-31T10:44:21.183Z,40.55
2018-07-31T10:45:21.180Z,41.23
2018-07-31T10:46:21.152Z,41.13
2018-07-31T10:47:21.182Z,41.23
2018-07-31T10:48:21.119Z,41.03
2018-07-31T10:49:21.108Z,40.94
2018-07-31T10:50:21.092Z,40.94
2018-07-31T10:51:21.079Z,40.45
2018-07-31T10:52:21.107Z,40.35
2018-07-31T10:53:21.050Z,40.25
2018-07-31T10:54:21.030Z,39.96
2018-07-31T10:55:21.661Z,39.76
2018-07-31T10:56:21.067Z,40.27
2018-07-31T10:57:20.991Z,40.08
2018-07-31T10:58:21.043Z,40.64
2018-07-31T10:59:21.001Z,39.96
2018-07-31T11:00:20.983Z,39.39
2018-07-31T11:01:20.937Z,38.60
2018-07-31T11:02:20.974Z,39.59
2018-07-31T11:03:20.907Z,39.59
2018-07-31T11:04:20.899Z,38.90
2018-07-31T11:05:20.877Z,39.39
2018-07-31T11:06:20.941Z,39.59
2018-07-31T11:07:20.890Z,39.39
2018-07-31T11:08:20.881Z,38.41
2018-07-31T11:09:20.814Z,39.59
2018-07-31T11:10:20.814Z,39.69
2018-07-31T11:11:20.795Z,39.78
2018-07-31T11:12:20.777Z,39.49
2018-07-31T11:13:20.820Z,39.88
2018-07-31T11:14:20.744Z,40.56
2018-07-31T11:15:20.731Z,39.78
2018-07-31T11:16:20.712Z,39.98
2018-07-31T11:17:20.705Z,39.69
2018-07-31T11:18:20.736Z,39.69
2018-07-31T11:19:20.671Z,39.70
2018-07-31T11:20:20.656Z,39.31
2018-07-31T11:21:20.709Z,39.70
2018-07-31T11:22:20.627Z,39.70
2018-07-31T11:23:20.664Z,39.90
2018-07-31T11:24:20.603Z,39.22
2018-07-31T11:25:20.585Z,39.61
2018-07-31T11:26:20.570Z,39.61
2018-07-31T11:27:20.643Z,39.80
2018-07-31T11:28:20.588Z,40.39
2018-07-31T11:29:20.530Z,40.19
2018-07-31T11:30:20.516Z,40.58
2018-07-31T11:31:20.506Z,39.51
2018-07-31T11:32:20.498Z,39.70
2018-07-31T11:33:20.531Z,39.61
2018-07-31T11:34:20.471Z,39.72
2018-07-31T11:35:20.443Z,40.21
2018-07-31T11:36:20.433Z,40.80
2018-07-31T11:37:20.415Z,40.11
2018-07-31T11:38:20.448Z,41.19
2018-07-31T11:39:20.391Z,41.00
2018-07-31T11:40:20.377Z,40.90
2018-07-31T11:41:20.431Z,40.51
2018-07-31T11:42:20.346Z,39.82
2018-07-31T11:43:20.384Z,39.62
2018-07-31T11:44:20.321Z,39.72
2018-07-31T11:45:20.309Z,39.72
2018-07-31T11:46:20.292Z,39.62
2018-07-31T11:47:20.329Z,39.62
2018-07-31T11:48:20.261Z,40.01
2018-07-31T11:49:20.247Z,40.31
2018-07-31T11:50:20.234Z,40.11
2018-07-31T11:51:20.220Z,39.72
2018-07-31T11:52:20.259Z,40.11
2018-07-31T11:53:20.192Z,39.72
2018-07-31T11:54:20.181Z,39.53
2018-07-31T11:55:20.174Z,39.72
2018-07-31T11:56:20.152Z,40.61
2018-07-31T11:57:20.185Z,40.51
2018-07-31T11:58:20.121Z,40.03
2018-07-31T11:59:20.109Z,39.72
2018-07-31T12:00:20.148Z,39.64
2018-07-31T12:01:20.092Z,39.74
2018-07-31T12:02:20.067Z,39.84
2018-07-31T12:03:20.129Z,39.74
2018-07-31T12:04:20.063Z,40.03
2018-07-31T12:05:20.029Z,40.23
2018-07-31T12:06:20.014Z,40.43
2018-07-31T12:07:20.000Z,39.94
2018-07-31T12:08:20.029Z,40.13
2018-07-31T12:09:19.969Z,40.03
2018-07-31T12:10:19.962Z,39.84
2018-07-31T12:11:19.950Z,39.45
2018-07-31T12:12:19.937Z,39.64
2018-07-31T12:13:19.965Z,39.64
2018-07-31T12:14:19.919Z,39.45
2018-07-31T12:15:19.934Z,39.74
2018-07-31T12:16:19.879Z,39.74
2018-07-31T12:17:19.867Z,39.74
2018-07-31T12:18:19.850Z,39.84
2018-07-31T12:19:19.879Z,39.84
2018-07-31T12:20:19.820Z,40.23
2018-07-31T12:21:19.813Z,39.86
2018-07-31T12:22:19.797Z,40.45
2018-07-31T12:23:19.843Z,39.95
2018-07-31T12:24:19.764Z,39.37
2018-07-31T12:25:19.747Z,39.56
2018-07-31T12:26:19.734Z,39.07
2018-07-31T12:27:19.724Z,38.58
2018-07-31T12:28:19.753Z,39.56
2018-07-31T12:29:19.740Z,39.47
2018-07-31T12:30:19.683Z,39.47
2018-07-31T12:31:19.666Z,39.66
2018-07-31T12:32:19.701Z,38.58
2018-07-31T12:33:19.640Z,39.07
2018-07-31T12:34:19.729Z,38.29
2018-07-31T12:35:19.622Z,39.27
2018-07-31T12:36:19.612Z,39.07
2018-07-31T12:37:19.589Z,38.58
2018-07-31T12:38:19.693Z,38.19
2018-07-31T12:39:19.603Z,38.09
2018-07-31T12:40:19.546Z,38.66
2018-07-31T12:41:19.537Z,38.68
2018-07-31T12:42:19.518Z,38.76
2018-07-31T12:43:19.512Z,38.66
2018-07-31T12:44:19.535Z,38.76
2018-07-31T12:45:19.478Z,38.76
2018-07-31T12:46:19.460Z,38.66
2018-07-31T12:47:19.493Z,38.37
2018-07-31T12:48:19.505Z,38.66
2018-07-31T12:49:19.428Z,38.66
2018-07-31T12:50:19.408Z,38.68
2018-07-31T12:51:19.396Z,38.58
2018-07-31T12:52:19.382Z,38.68